U-Tapao International Airport
VTBU : now visible

Airfield :











YOU CAN JOIN US ON...

 
LOGIN :

Register | Disclaimer

   EN    FR    IT 

 









Legend :    VFR   Marginal VFR   IFR   Intensive IFR   Very Intensive IFR
Visi :
Ceiling :
>= 8 km
>= 3000ft
5 to 8 km
1000 to 3000 ft
1500m to 5 km
500 to 1000 ft
800 to 1500m
200 to 500 ft
< 800m
< 200 ft
Symbols :   Thunderstorms  Fog  Heavy snow  Heavy precipitations  Wind > 20 kt






- Airport Elevation : 42 ft
- IATA code : UTP


VTBU - U-Tapao International

CURRENT METAR :
  • 010530Z 17011KT 130V220 9999 FEW020 31/24 Q1011 NOSIG

EXPIRED METARs :
  • 010500Z 16012KT 120V210 9999 FEW020 31/24 Q1011 NOSIG
  • 010430Z 17010KT 9999 FEW020 32/23 Q1012 NOSIG
  • 010400Z 17010KT 090V220 9999 FEW020 31/24 Q1012 NOSIG
  • 010330Z 17008KT 9999 FEW020 31/24 Q1012 NOSIG
  • 010300Z 16009KT 9999 FEW020 31/24 Q1012 NOSIG

TAF TAF VTBU
Valid from the 01 at 06:00 until the 02 at 06:00 UTC


010500Z 0106/0206 18010KT 9999 FEW020



MET'MAP, your aeronautical weather chart ! - Copyright ORBIFLY December 2007 - Disclaimer

ORBIFLY MET'MAP TEAM :

Programming & Development : Alexandra Zaïnal
Concept & original design : Baudouin d'Aumeries
Assistance for programming : Marc-Olivier Méhu
Technical & hardware support : Manuel Goepfert

Contact : metmap@orbifly.com




SOURCES & CREDITS :

   NOAA       Earth
Advisory